Time;durP1;ratioP1;P1;durP2;ratioP2;P2;SDS_P1;SDS_P2;PMS_P1;PMS_P2;Temp;Humidity;BMP_temperature;BMP_pressure;BME280_temperature;BME280_humidity;BME280_pressure;Samples;Min_cycle;Max_cycle;Signal;HPM_P1;HPM_P2
2022/08/17 00:00:07;;;;;;;16.92;12.43;;;;;;;21.71;82.93;100323.84;5074774;28;20056;-69
2022/08/17 00:02:58;;;;;;;17.92;11.93;;;;;;;21.56;82.72;100314.63;5053852;28;20041;-70
2022/08/17 00:05:27;;;;;;;14.57;11.57;;;;;;;21.41;83.62;100309.38;5054993;28;20053;-70
2022/08/17 00:07:55;;;;;;;16.08;12.52;;;;;;;21.60;83.40;100309.81;5054070;28;20064;-70
2022/08/17 00:10:23;;;;;;;15.40;11.68;;;;;;;21.76;82.28;100298.25;5052398;28;20064;-70
2022/08/17 00:12:51;;;;;;;16.55;10.55;;;;;;;21.81;81.64;100297.88;5065393;28;20048;-69
2022/08/17 00:15:20;;;;;;;15.60;11.20;;;;;;;21.81;81.95;100300.69;5074599;28;20052;-70
2022/08/17 00:17:49;;;;;;;15.05;10.75;;;;;;;21.81;81.51;100303.50;5059544;28;20055;-70
2022/08/17 00:20:17;;;;;;;15.25;10.60;;;;;;;22.07;81.05;100289.06;5074306;28;20055;-70
2022/08/17 00:22:49;;;;;;;14.80;11.02;;;;;;;21.86;80.49;100298.25;5051610;28;20511;-71
2022/08/17 00:25:18;;;;;;;14.23;10.80;;;;;;;21.64;82.27;100301.41;5034473;28;20049;-70
2022/08/17 00:27:46;;;;;;;18.33;11.40;;;;;;;21.79;82.08;100306.66;5067637;28;20542;-69
2022/08/17 00:30:14;;;;;;;17.15;10.43;;;;;;;;;;5053144;28;20092;-70
2022/08/17 00:32:44;;;;;;;14.10;10.88;;;;;;;21.66;82.27;100302.63;5054252;28;20053;-71
2022/08/17 00:35:32;;;;;;;14.60;10.50;;;;;;;21.74;82.40;100300.66;5065176;28;20049;-72
2022/08/17 00:38:00;;;;;;;18.08;11.88;;;;;;;21.61;82.52;100293.78;5069421;28;20045;-71
2022/08/17 00:40:27;;;;;;;19.77;12.20;;;;;;;21.54;83.86;100294.59;5068505;28;20049;-71
2022/08/17 00:43:18;;;;;;;16.17;11.50;;;;;;;21.63;82.91;100292.22;5061310;28;20045;-71
2022/08/17 00:45:46;;;;;;;17.42;10.95;;;;;;;21.53;83.62;100292.19;5063480;28;20049;-70
2022/08/17 00:48:14;;;;;;;13.05;10.90;;;;;;;21.82;82.53;100271.44;5052754;28;20057;-70
2022/08/17 00:51:10;;;;;;;15.98;10.93;;;;;;;21.57;82.58;100276.97;5054167;28;20063;-70
2022/08/17 00:53:40;;;;;;;14.05;10.25;;;;;;;21.57;83.08;100276.16;5053202;28;20060;-71
2022/08/17 00:56:10;;;;;;;;;;;;;;;21.74;81.88;100278.22;5053949;28;20048;-70
2022/08/17 00:58:37;;;;;;;16.13;10.10;;;;;;;21.63;82.68;100277.38;5067460;28;19947;-70
2022/08/17 01:01:06;;;;;;;12.95;9.05;;;;;;;21.70;82.56;100286.63;5060367;28;20056;-70
2022/08/17 01:03:34;;;;;;;13.03;9.77;;;;;;;21.76;81.64;100292.63;5052886;28;20524;-70
2022/08/17 01:06:03;;;;;;;13.05;9.73;;;;;;;21.68;82.38;100299.41;5052605;28;20400;-71
2022/08/17 01:08:32;;;;;;;13.15;10.32;;;;;;;21.59;82.12;100299.81;5056233;28;20053;-71
2022/08/17 01:11:01;;;;;;;13.10;10.07;;;;;;;21.39;83.20;100292.97;5056035;28;20053;-70
2022/08/17 01:13:35;;;;;;;14.80;10.68;;;;;;;21.39;83.98;100290.16;5062673;28;20059;-70
2022/08/17 01:16:21;;;;;;;13.88;10.70;;;;;;;21.38;84.27;100284.94;5066030;28;20504;-71
2022/08/17 01:18:53;;;;;;;16.08;10.55;;;;;;;21.59;83.33;100293.38;5070392;28;20063;-70
2022/08/17 01:21:46;;;;;;;12.07;10.00;;;;;;;21.63;82.87;100292.22;5065438;28;20405;-70
2022/08/17 01:24:14;;;;;;;15.45;10.40;;;;;;;21.54;83.02;100290.97;5041089;28;20409;-70
2022/08/17 01:26:42;;;;;;;17.83;10.15;;;;;;;21.48;83.75;100290.56;5051710;28;20048;-70
2022/08/17 01:29:10;;;;;;;14.30;10.48;;;;;;;21.42;83.73;100289.38;5089068;28;20056;-71
2022/08/17 01:31:51;;;;;;;13.82;10.20;;;;;;;21.44;83.81;100286.97;5063273;28;20503;-70
2022/08/17 01:34:19;;;;;;;13.00;10.30;;;;;;;21.74;82.79;100293.00;5056670;28;20148;-70
2022/08/17 01:36:48;;;;;;;19.17;10.65;;;;;;;21.60;82.80;100287.38;5057041;28;20049;-71
2022/08/17 01:39:36;;;;;;;14.82;10.40;;;;;;;21.53;83.45;100297.81;5056065;28;20061;-70
2022/08/17 01:42:23;;;;;;;15.73;10.15;;;;;;;21.53;83.31;100286.59;5056689;28;20941;-70
2022/08/17 01:44:57;;;;;;;14.05;11.07;;;;;;;21.37;83.91;100295.38;5057344;28;20057;-71
2022/08/17 01:47:25;;;;;;;14.15;9.85;;;;;;;21.37;84.60;100297.34;5055150;28;20511;-71
2022/08/17 01:49:52;;;;;;;14.90;10.90;;;;;;;21.36;84.64;100299.34;5057546;28;20049;-70
2022/08/17 01:52:20;;;;;;;14.35;10.60;;;;;;;21.37;84.46;100303.78;5053016;28;20057;-70
2022/08/17 01:54:50;;;;;;;13.90;10.27;;;;;;;21.34;84.45;100304.53;5055668;28;20049;-70
2022/08/17 01:57:17;;;;;;;16.00;10.00;;;;;;;21.54;83.72;100297.41;5073951;28;20832;-70
2022/08/17 01:59:44;;;;;;;12.68;10.32;;;;;;;21.61;83.51;100294.59;5077101;28;20295;-69
2022/08/17 02:02:12;;;;;;;17.60;10.63;;;;;;;21.48;83.47;100303.78;5051691;28;20041;-71
2022/08/17 02:04:57;;;;;;;13.88;10.38;;;;;;;21.42;83.89;100306.19;5057156;28;20052;-71
2022/08/17 02:07:24;;;;;;;12.57;10.43;;;;;;;21.35;84.79;100308.16;5054666;28;20057;-71
2022/08/17 02:09:55;;;;;;;17.23;10.93;;;;;;;21.32;84.63;100306.16;5037906;28;20499;-70
2022/08/17 02:12:23;;;;;;;15.15;11.43;;;;;;;21.06;85.87;100313.63;5056538;28;20048;-72
2022/08/17 02:15:09;;;;;;;18.25;10.98;;;;;;;21.11;86.47;100315.28;5056850;28;20060;-71
2022/08/17 02:17:36;;;;;;;16.05;10.98;;;;;;;21.19;85.39;100308.50;5057809;28;20523;-71
2022/08/17 02:20:04;;;;;;;12.40;10.90;;;;;;;21.25;85.35;100315.34;5068536;28;20051;-70
2022/08/17 02:22:31;;;;;;;17.55;12.02;;;;;;;21.27;85.32;100312.91;5070859;28;20527;-70
2022/08/17 02:24:59;;;;;;;13.32;10.68;;;;;;;21.24;84.87;100311.72;5061143;28;20045;-70
2022/08/17 02:27:28;;;;;;;15.98;11.13;;;;;;;21.17;85.72;100314.50;5055434;28;20634;-70
2022/08/17 02:29:56;;;;;;;19.83;11.10;;;;;;;20.93;86.88;100308.75;5055457;28;20048;-70
2022/08/17 02:32:25;;;;;;;15.40;11.18;;;;;;;21.02;86.26;100310.03;5056682;28;20420;-69
2022/08/17 02:34:56;;;;;;;14.68;11.15;;;;;;;20.96;87.15;100308.78;5054903;28;20045;-70
2022/08/17 02:37:24;;;;;;;15.25;11.10;;;;;;;20.78;87.85;100323.88;5054212;28;20049;-70
2022/08/17 02:39:51;;;;;;;15.68;11.50;;;;;;;20.79;88.01;100319.88;5056071;28;20492;-64
2022/08/17 02:42:32;;;;;;;15.55;11.90;;;;;;;20.80;88.03;100322.28;5071175;28;20053;-63
2022/08/17 02:45:01;;;;;;;13.05;11.20;;;;;;;20.83;87.88;100324.31;5054949;28;20049;-63
2022/08/17 02:47:28;;;;;;;16.40;11.57;;;;;;;21.30;85.97;100322.53;5056083;28;20049;-63
2022/08/17 02:49:56;;;;;;;14.98;10.60;;;;;;;21.21;85.05;100326.53;5071692;28;20076;-64
2022/08/17 02:52:26;;;;;;;14.68;10.85;;;;;;;21.21;84.88;100334.13;5058386;28;20048;-64
2022/08/17 02:55:17;;;;;;;13.07;10.38;;;;;;;20.92;86.54;100330.34;5065738;28;20448;-64
2022/08/17 02:57:45;;;;;;;16.58;10.50;;;;;;;20.78;85.96;100326.69;5054120;28;20547;-64
2022/08/17 03:00:20;;;;;;;14.40;10.27;;;;;;;21.01;85.48;100327.22;5055636;28;20411;-64
2022/08/17 03:02:48;;;;;;;14.00;10.32;;;;;;;20.99;85.44;100319.22;5035737;28;20045;-63
2022/08/17 03:05:17;;;;;;;15.02;10.43;;;;;;;20.96;85.51;100313.56;5045415;28;20063;-64
2022/08/17 03:07:45;;;;;;;14.50;10.10;;;;;;;20.95;85.81;100303.56;5053492;28;20535;-64
2022/08/17 03:10:13;;;;;;;13.90;9.80;;;;;;;21.02;84.96;100298.84;5053557;28;20057;-64
2022/08/17 03:12:42;;;;;;;16.90;9.98;;;;;;;21.17;84.85;100291.28;5055815;28;20061;-63
2022/08/17 03:15:12;;;;;;;13.88;10.20;;;;;;;21.18;84.47;100292.91;5056020;28;20507;-63
2022/08/17 03:17:40;;;;;;;14.45;9.38;;;;;;;21.22;84.39;100296.50;5056900;28;20056;-64
2022/08/17 03:20:08;;;;;;;12.15;9.52;;;;;;;21.31;83.73;100288.53;5059744;28;20428;-63
2022/08/17 03:22:41;;;;;;;11.82;9.55;;;;;;;21.44;83.07;100292.56;5057917;28;20056;-64
2022/08/17 03:25:22;;;;;;;14.07;9.55;;;;;;;21.18;82.90;100287.31;5053381;28;20409;-63
2022/08/17 03:27:50;;;;;;;12.00;9.85;;;;;;;21.01;84.11;100277.63;5055201;28;20063;-64
2022/08/17 03:30:17;;;;;;;14.30;9.57;;;;;;;21.37;83.06;100274.94;5070537;28;20171;-64
2022/08/17 03:32:49;;;;;;;16.03;9.63;;;;;;;21.76;81.53;100281.44;5055445;28;20056;-64
2022/08/17 03:35:19;;;;;;;11.77;9.25;;;;;;;21.73;80.41;100273.78;5055637;28;20291;-64
2022/08/17 03:37:47;;;;;;;14.38;9.52;;;;;;;21.69;81.03;100276.59;5054176;28;20056;-63
2022/08/17 03:40:26;;;;;;;12.10;9.45;;;;;;;21.75;81.17;100277.00;5053993;28;20080;-63
2022/08/17 03:43:14;;;;;;;17.25;9.60;;;;;;;21.73;80.65;100280.22;5054323;28;20045;-63
2022/08/17 03:57:05;;;;;;;16.17;9.85;;;;;;;21.48;80.66;100289.78;5071990;28;20063;-64
2022/08/17 03:59:33;;;;;;;14.00;9.27;;;;;;;21.45;80.59;100294.16;5053630;28;20067;-64
2022/08/17 04:02:07;;;;;;;14.07;9.55;;;;;;;21.72;80.36;100305.84;5054196;28;20072;-64
2022/08/17 04:04:35;;;;;;;15.23;9.88;;;;;;;21.78;79.22;100305.06;5053879;28;20072;-64
2022/08/17 04:07:03;;;;;;;11.40;9.13;;;;;;;21.75;79.79;100313.44;5052477;28;20056;-64
2022/08/17 04:09:30;;;;;;;11.82;9.13;;;;;;;21.95;78.69;100311.91;5076096;28;20076;-63
2022/08/17 04:11:58;;;;;;;11.90;9.52;;;;;;;21.81;78.53;100314.72;5061413;28;20049;-64
2022/08/17 04:14:35;;;;;;;12.82;9.60;;;;;;;21.62;79.04;100321.44;5054766;28;20634;-63
2022/08/17 04:17:23;;;;;;;12.23;9.52;;;;;;;21.45;79.80;100325.00;5080676;28;20056;-64
2022/08/17 04:19:51;;;;;;;14.20;9.50;;;;;;;21.54;80.05;100319.00;5044455;28;20052;-63
2022/08/17 04:22:18;;;;;;;11.27;9.38;;;;;;;21.51;79.93;100325.41;5053092;28;20049;-64
2022/08/17 04:25:20;;;;;;;16.38;9.90;;;;;;;21.58;79.97;100315.03;5064147;28;20048;-63
2022/08/17 04:27:47;;;;;;;13.60;9.88;;;;;;;21.64;79.51;100321.03;5054318;28;20068;-63
2022/08/17 04:30:15;;;;;;;15.00;9.90;;;;;;;21.60;79.49;100323.03;5054303;28;20516;-63
2022/08/17 04:32:59;;;;;;;12.27;9.80;;;;;;;21.63;78.98;100314.63;5054788;28;20412;-64
2022/08/17 04:35:41;;;;;;;12.55;9.93;;;;;;;21.62;79.11;100326.25;5054480;28;20045;-64
2022/08/17 04:38:15;;;;;;;12.23;9.32;;;;;;;21.32;80.02;100325.75;5056418;28;20049;-64
2022/08/17 04:43:30;;;;;;;12.93;10.00;;;;;;;21.31;80.15;100310.13;5054542;28;20059;-64
2022/08/17 04:46:04;;;;;;;17.30;10.27;;;;;;;21.47;79.25;100310.59;5069479;28;20045;-66
2022/08/17 04:48:44;;;;;;;16.48;10.35;;;;;;;21.54;79.44;100310.59;5035537;28;20303;-62
2022/08/17 04:51:15;;;;;;;13.95;10.27;;;;;;;21.58;78.93;100312.22;5054383;28;20642;-63
2022/08/17 04:53:45;;;;;;;12.70;10.27;;;;;;;21.35;80.17;100306.16;5062726;28;20062;-64
2022/08/17 04:56:22;;;;;;;14.65;10.45;;;;;;;21.25;80.46;100309.72;5052969;28;20053;-64
2022/08/17 04:58:51;;;;;;;14.60;10.15;;;;;;;21.36;79.07;100299.34;5052656;28;20045;-65
2022/08/17 05:01:20;;;;;;;15.85;10.60;;;;;;;21.30;80.08;100289.72;5044597;28;20088;-63
2022/08/17 05:04:00;;;;;;;14.95;10.40;;;;;;;21.47;79.70;100277.75;5035724;28;20069;-65
2022/08/17 05:06:48;;;;;;;13.75;10.98;;;;;;;21.39;79.46;100275.34;5039504;28;20056;-64
2022/08/17 05:09:16;;;;;;;13.48;11.50;;;;;;;21.25;79.92;100285.31;5052096;28;20574;-65
2022/08/17 05:11:44;;;;;;;15.55;10.45;;;;;;;21.19;79.67;100283.28;5068102;28;20053;-65
2022/08/17 05:14:13;;;;;;;15.02;10.43;;;;;;;21.52;79.41;100284.97;5050967;28;20460;-61
2022/08/17 05:16:40;;;;;;;14.40;10.52;;;;;;;21.48;79.43;100301.00;5052568;28;20053;-62
2022/08/17 05:19:07;;;;;;;12.63;10.48;;;;;;;21.67;79.01;100295.81;5084297;28;20048;-62
2022/08/17 05:21:35;;;;;;;12.88;10.75;;;;;;;21.38;79.57;100298.94;5061005;28;20052;-63
2022/08/17 05:24:02;;;;;;;13.57;11.15;;;;;;;21.26;80.43;100294.50;5055291;28;20523;-63
2022/08/17 05:26:43;;;;;;;14.68;10.73;;;;;;;21.24;80.81;100291.31;5050726;28;20049;-64
2022/08/17 05:29:11;;;;;;;14.82;10.98;;;;;;;21.18;80.99;100285.28;5053082;28;20057;-62
2022/08/17 05:31:38;;;;;;;17.92;11.77;;;;;;;21.03;81.68;100280.84;5069442;28;20496;-65
2022/08/17 05:34:06;;;;;;;16.60;11.70;;;;;;;20.78;83.34;100282.69;5051803;28;20262;-64
2022/08/17 05:36:33;;;;;;;14.70;11.65;;;;;;;21.01;82.80;100285.22;5063274;28;20052;-63
2022/08/17 05:39:11;;;;;;;13.75;10.90;;;;;;;21.07;82.31;100301.25;5040020;28;20060;-69
2022/08/17 05:41:45;;;;;;;13.27;11.50;;;;;;;21.14;82.10;100294.88;5068496;28;20055;-62
2022/08/17 05:44:12;;;;;;;14.82;11.80;;;;;;;21.03;82.25;100289.22;5068514;28;20051;-62
2022/08/17 05:46:42;;;;;;;16.90;11.75;;;;;;;20.85;82.80;100293.91;5050859;28;20981;-62
2022/08/17 05:49:11;;;;;;;17.48;11.48;;;;;;;21.06;81.99;100287.66;5051136;28;20080;-62
2022/08/17 05:51:38;;;;;;;16.52;11.32;;;;;;;21.00;82.71;100284.44;5057858;28;20496;-68
2022/08/17 05:54:17;;;;;;;17.63;11.10;;;;;;;21.01;81.63;100269.22;5064659;28;20057;-69
2022/08/17 05:57:09;;;;;;;14.85;11.38;;;;;;;20.90;82.35;100273.94;5057468;28;20064;-70
2022/08/17 05:59:50;;;;;;;18.40;11.23;;;;;;;20.89;83.05;100272.34;5057120;28;20053;-69
2022/08/17 06:02:40;;;;;;;16.15;10.82;;;;;;;21.12;81.66;100266.47;5046312;28;20044;-70
2022/08/17 06:05:24;;;;;;;13.77;11.02;;;;;;;21.28;81.18;100275.31;5060029;28;20056;-69
2022/08/17 06:08:05;;;;;;;17.65;11.23;;;;;;;21.51;80.09;100281.38;5076661;28;20508;-69
2022/08/17 06:10:32;;;;;;;25.08;13.80;;;;;;;21.67;78.77;100283.81;5091498;28;20061;-69
2022/08/17 06:13:13;;;;;;;24.00;15.13;;;;;;;21.64;78.77;100285.41;5077142;28;20060;-68
2022/08/17 06:15:40;;;;;;;24.33;17.23;;;;;;;21.99;77.46;100284.66;5092272;28;20048;-69
2022/08/17 06:18:09;;;;;;;17.10;13.82;;;;;;;22.16;76.74;100293.06;5076032;28;20051;-62
2022/08/17 06:21:12;;;;;;;23.02;13.15;;;;;;;21.87;77.84;100301.88;5076949;28;20500;-70
2022/08/17 06:23:43;;;;;;;17.73;12.88;;;;;;;21.99;77.64;100304.28;5012802;28;20056;-70
2022/08/17 06:26:19;;;;;;;15.82;12.68;;;;;;;21.85;78.57;100319.09;5046391;28;20089;-70
2022/08/17 06:28:54;;;;;;;20.02;13.32;;;;;;;22.10;78.28;100316.31;5049643;28;20044;-70
2022/08/17 06:31:26;;;;;;;23.63;11.80;;;;;;;22.26;77.63;100322.34;5057967;28;20075;-69
2022/08/17 06:33:59;;;;;;;26.83;12.32;;;;;;;22.61;76.18;100338.38;5056332;28;20504;-68
2022/08/17 06:36:39;;;;;;;41.05;13.77;;;;;;;22.66;75.44;100341.56;5052900;28;20051;-69
2022/08/17 06:39:28;;;;;;;28.77;13.25;;;;;;;22.63;74.67;100344.38;5055553;28;20056;-70
2022/08/17 06:42:17;;;;;;;15.32;12.52;;;;;;;22.61;74.72;100344.78;5052665;28;20053;-70
2022/08/17 06:45:17;;;;;;;17.98;13.00;;;;;;;22.56;74.38;100339.56;5049002;28;20049;-68
2022/08/17 06:47:59;;;;;;;15.50;11.98;;;;;;;22.34;75.30;100333.16;5051010;28;20045;-69
2022/08/17 06:50:37;;;;;;;21.85;13.23;;;;;;;22.03;76.80;100341.56;5053230;28;20048;-71
2022/08/17 06:53:09;;;;;;;24.92;12.60;;;;;;;21.98;77.38;100344.75;5055173;28;20056;-71
2022/08/17 06:56:11;;;;;;;18.45;12.23;;;;;;;22.10;77.01;100353.59;5054912;28;20484;-71
2022/08/17 06:58:39;;;;;;;17.17;12.13;;;;;;;22.32;76.57;100352.41;5046848;28;20052;-73
2022/08/17 07:01:09;;;;;;;;;;;;;;;22.16;76.97;100351.16;5048964;28;20048;-72
2022/08/17 07:03:40;;;;;;;14.73;11.90;;;;;;;21.88;78.48;100348.38;5059561;28;19920;-72
2022/08/17 07:06:17;;;;;;;16.15;11.30;;;;;;;21.99;77.78;100355.59;5060014;28;20045;-71
2022/08/17 07:08:57;;;;;;;21.40;11.52;;;;;;;22.04;77.98;100355.19;5052791;28;20067;-71
2022/08/17 07:11:26;;;;;;;21.58;12.52;;;;;;;21.86;77.65;100354.34;5069005;28;20061;-70
2022/08/17 07:14:04;;;;;;;16.67;11.82;;;;;;;22.22;77.05;100358.81;5050974;28;20044;-70
2022/08/17 07:16:45;;;;;;;35.17;14.18;;;;;;;22.34;76.37;100364.03;5055490;28;20053;-70
2022/08/17 07:19:16;;;;;;;25.45;15.93;;;;;;;22.03;77.31;100373.22;5049571;28;20064;-72
2022/08/17 07:22:01;;;;;;;;;;;;;;;22.01;77.17;100381.22;5060801;28;20514;-71
2022/08/17 07:24:37;;;;;;;18.60;13.85;;;;;;;22.25;76.78;100391.69;5069959;28;20368;-72
2022/08/17 07:27:11;;;;;;;31.10;14.48;;;;;;;22.35;76.05;100401.31;5050645;28;20060;-72
2022/08/17 07:30:01;;;;;;;38.60;14.23;;;;;;;22.45;75.56;100410.94;5051461;28;20060;-72
2022/08/17 07:32:36;;;;;;;18.83;11.95;;;;;;;22.58;75.05;100409.38;5051705;28;20160;-72
2022/08/17 07:35:15;;;;;;;23.00;11.93;;;;;;;22.60;74.63;100420.97;5052830;28;20404;-72
2022/08/17 07:37:49;;;;;;;17.45;11.48;;;;;;;22.57;74.99;100427.41;5066192;28;20043;-72
2022/08/17 07:40:30;;;;;;;14.02;11.30;;;;;;;22.38;75.15;100422.97;5053805;28;20546;-70
2022/08/17 07:43:22;;;;;;;21.05;11.38;;;;;;;22.42;75.34;100422.97;5052791;28;20056;-72
2022/08/17 07:48:45;;;;;;;21.27;11.70;;;;;;;22.19;76.16;100426.16;5046822;28;20056;-71
2022/08/17 07:51:25;;;;;;;16.30;10.40;;;;;;;22.12;76.56;100424.13;5045370;28;20059;-71
2022/08/17 07:53:55;;;;;;;18.17;11.60;;;;;;;22.03;76.62;100426.53;5062803;28;21578;-70
2022/08/17 07:56:55;;;;;;;22.80;14.60;;;;;;;22.00;76.88;100418.88;5050922;28;20071;-71
2022/08/17 07:59:34;;;;;;;21.40;12.45;;;;;;;22.19;75.79;100426.94;5045024;28;20056;-71
2022/08/17 08:02:26;;;;;;;18.27;11.85;;;;;;;21.49;79.63;100434.31;5053877;28;20045;-70
2022/08/17 08:05:13;;;;;;;19.13;11.82;;;;;;;21.93;78.30;100438.50;5053264;28;20056;-71
2022/08/17 08:08:00;;;;;;;22.13;12.73;;;;;;;22.22;76.86;100445.78;5050283;28;20056;-71
2022/08/17 08:10:35;;;;;;;21.00;11.75;;;;;;;22.43;76.34;100441.41;5052813;28;20071;-72
2022/08/17 08:13:21;;;;;;;13.43;10.50;;;;;;;22.44;75.77;100445.81;5047620;28;20063;-71
2022/08/17 08:15:52;;;;;;;29.98;10.45;;;;;;;22.65;74.67;100465.53;5050485;28;20053;-71
2022/08/17 08:18:27;;;;;;;34.53;11.70;;;;;;;22.33;75.44;100468.25;5054380;28;20056;-72
2022/08/17 08:21:45;;;;;;;33.53;13.68;;;;;;;22.51;75.62;100462.69;5069288;28;20060;-72
2022/08/17 08:24:33;;;;;;;30.65;11.60;;;;;;;22.58;75.15;100469.09;5048194;28;20064;-71
2022/08/17 08:27:06;;;;;;;23.73;11.52;;;;;;;22.23;76.11;100478.25;5051883;28;20052;-72
2022/08/17 08:29:59;;;;;;;23.38;11.00;;;;;;;22.49;75.51;100468.66;5066186;28;20045;-73
2022/08/17 08:32:47;;;;;;;16.20;10.75;;;;;;;22.34;75.68;100467.06;5056641;28;20045;-71
2022/08/17 08:35:36;;;;;;;35.08;13.02;;;;;;;22.58;75.54;100462.72;5049901;28;20049;-70
2022/08/17 08:38:26;;;;;;;35.53;12.77;;;;;;;22.71;75.81;100459.09;5048746;28;20040;-70
2022/08/17 08:41:16;;;;;;;38.10;12.73;;;;;;;22.67;76.63;100455.47;5065961;28;20061;-70
2022/08/17 08:44:17;;;;;;;23.13;12.25;;;;;;;22.71;76.52;100453.47;5060942;28;20055;-69
2022/08/17 08:47:33;;;;;;;18.52;11.30;;;;;;;22.76;75.61;100464.31;5027677;28;20503;-70
2022/08/17 08:50:13;;;;;;;17.42;13.43;;;;;;;22.65;76.07;100471.91;5006581;28;20057;-70
2022/08/17 08:53:38;;;;;;;20.88;12.25;;;;;;;22.66;75.81;100475.53;5048054;28;20041;-69
2022/08/17 08:56:11;;;;;;;13.95;11.65;;;;;;;22.62;75.75;100469.09;5047602;28;20064;-69
2022/08/17 08:58:51;;;;;;;18.17;12.52;;;;;;;22.78;75.87;100466.72;5051099;28;20052;-69
2022/08/17 09:01:38;;;;;;;;;;;;;;;22.83;74.60;100475.53;5064065;28;20051;-69
2022/08/17 09:04:22;;;;;;;28.23;12.35;;;;;;;22.78;75.37;100470.34;5055243;28;20332;-70
2022/08/17 09:07:23;;;;;;;26.70;12.05;;;;;;;22.96;74.98;100473.13;5048521;28;20052;-70
2022/08/17 09:10:09;;;;;;;28.02;11.90;;;;;;;22.97;74.54;100461.50;5049092;28;20544;-69
2022/08/17 09:12:49;;;;;;;16.52;10.90;;;;;;;22.83;74.71;100466.31;5068485;28;20045;-71
2022/08/17 09:15:21;;;;;;;18.33;11.48;;;;;;;22.72;75.30;100471.94;5052379;28;20062;-70
2022/08/17 09:17:53;;;;;;;15.02;11.38;;;;;;;22.52;75.69;100475.50;5062786;28;20053;-70
2022/08/17 09:20:47;;;;;;;16.92;11.45;;;;;;;22.36;76.15;100467.47;5051940;28;20048;-70
2022/08/17 09:23:41;;;;;;;19.75;12.18;;;;;;;22.44;76.04;100476.69;5050431;28;20095;-70
2022/08/17 09:26:13;;;;;;;27.10;15.05;;;;;;;22.72;75.28;100473.91;5051489;28;20061;-70
2022/08/17 09:28:43;;;;;;;33.03;16.33;;;;;;;22.85;74.84;100466.72;5055275;28;20460;-70
2022/08/17 09:31:16;;;;;;;19.00;13.00;;;;;;;22.73;74.98;100461.50;5054104;28;20057;-70
2022/08/17 09:33:46;;;;;;;17.52;13.00;;;;;;;22.71;74.76;100461.91;5057230;28;20053;-70
2022/08/17 09:36:24;;;;;;;21.85;12.88;;;;;;;22.66;74.88;100458.69;5055824;28;20049;-70
2022/08/17 09:38:58;;;;;;;30.45;13.95;;;;;;;22.74;74.58;100458.28;5055833;28;20056;-69
2022/08/17 09:41:40;;;;;;;19.83;11.45;;;;;;;22.92;73.79;100449.84;5055317;28;20061;-70
2022/08/17 09:44:26;;;;;;;20.00;11.80;;;;;;;22.94;73.93;100453.06;5056327;28;20044;-68
2022/08/17 09:46:58;;;;;;;23.70;11.80;;;;;;;23.01;73.44;100455.88;5059804;28;20060;-69
2022/08/17 09:49:25;;;;;;;29.17;12.70;;;;;;;22.97;73.55;100457.88;5056143;28;20064;-70
2022/08/17 09:51:57;;;;;;;38.72;14.68;;;;;;;22.98;73.43;100463.09;5054079;28;20036;-70
2022/08/17 09:54:31;;;;;;;15.23;12.43;;;;;;;22.67;74.31;100483.56;5055197;28;20053;-70
2022/08/17 09:57:17;;;;;;;20.70;12.20;;;;;;;22.99;73.11;100495.59;5051431;28;20065;-70
2022/08/17 10:00:14;;;;;;;14.80;11.85;;;;;;;22.78;73.14;100492.81;5043875;28;20456;-69
2022/08/17 10:03:14;;;;;;;22.15;12.65;;;;;;;22.64;74.50;100501.22;5073250;28;20036;-69
2022/08/17 10:05:55;;;;;;;22.55;13.77;;;;;;;22.51;75.28;100508.38;5042692;28;20052;-70
2022/08/17 10:08:31;;;;;;;20.05;12.40;;;;;;;22.46;75.61;100505.97;5056229;28;20557;-70
2022/08/17 10:11:21;;;;;;;24.85;17.25;;;;;;;22.68;75.23;100509.66;5047436;28;20041;-70
2022/08/17 10:14:10;;;;;;;17.73;13.05;;;;;;;22.33;76.33;100505.53;5052763;28;20783;-69
2022/08/17 10:17:21;;;;;;;18.85;12.80;;;;;;;22.47;75.64;100510.41;5045039;28;20053;-71
2022/08/17 10:19:49;;;;;;;20.58;14.05;;;;;;;22.64;75.41;100506.84;5052735;28;20053;-70
2022/08/17 10:28:24;;;;;;;24.30;13.60;;;;;;;22.83;74.41;100509.25;5042747;28;20048;-68
2022/08/17 10:30:59;;;;;;;16.67;13.38;;;;;;;22.82;73.83;100510.44;5066048;28;20053;-70
2022/08/17 10:33:52;;;;;;;16.67;12.65;;;;;;;22.61;74.53;100504.03;5056437;28;20068;-71
2022/08/17 10:36:53;;;;;;;13.85;12.35;;;;;;;22.81;72.91;100497.59;5072007;28;20060;-69
2022/08/17 10:39:29;;;;;;;17.55;13.05;;;;;;;22.49;73.72;100496.72;5045964;28;20049;-69
2022/08/17 10:42:03;;;;;;;14.98;12.35;;;;;;;22.37;74.69;100491.50;5048252;28;20056;-70
2022/08/17 10:44:41;;;;;;;16.15;12.20;;;;;;;22.53;74.83;100502.34;5050622;28;20061;-69
2022/08/17 10:47:13;;;;;;;15.77;12.68;;;;;;;22.60;74.42;100511.63;5036231;28;20057;-69
2022/08/17 10:49:48;;;;;;;27.73;15.32;;;;;;;22.65;73.80;100510.44;5039197;28;20049;-70
2022/08/17 10:52:18;;;;;;;18.45;15.70;;;;;;;22.76;73.49;100509.25;5064091;28;20411;-70
2022/08/17 10:54:49;;;;;;;34.50;23.73;;;;;;;23.01;72.98;100517.69;5074375;28;20056;-69
2022/08/17 10:57:30;;;;;;;29.75;22.48;;;;;;;23.02;72.92;100513.66;5039997;28;20056;-69
2022/08/17 10:59:58;;;;;;;37.90;26.80;;;;;;;22.87;73.64;100510.06;5071603;28;20049;-69
2022/08/17 11:02:30;;;;;;;29.27;21.40;;;;;;;22.97;73.68;100509.25;5067294;28;20053;-68
2022/08/17 11:05:15;;;;;;;26.73;19.90;;;;;;;22.99;73.94;100506.84;5052953;28;20049;-69
2022/08/17 11:08:04;;;;;;;19.92;16.70;;;;;;;23.19;72.76;100496.78;5062878;28;20424;-68
2022/08/17 11:10:57;;;;;;;21.05;14.73;;;;;;;23.11;71.55;100478.34;5071497;28;20443;-69
2022/08/17 11:13:30;;;;;;;17.15;14.45;;;;;;;23.20;71.34;100477.91;5050056;28;20056;-69
2022/08/17 11:16:26;;;;;;;19.67;14.85;;;;;;;23.18;71.99;100474.69;5048832;28;20056;-69
2022/08/17 11:19:25;;;;;;;20.85;15.63;;;;;;;23.18;70.63;100481.13;5057479;28;20535;-69
2022/08/17 11:22:21;;;;;;;23.00;15.43;;;;;;;22.65;72.88;100494.38;5047603;28;20515;-69
2022/08/17 11:24:51;;;;;;;19.50;15.18;;;;;;;22.73;73.85;100493.19;5065993;28;20056;-69
2022/08/17 11:27:25;;;;;;;20.10;15.55;;;;;;;23.13;72.71;100497.59;5060809;28;20056;-69
2022/08/17 11:30:19;;;;;;;24.20;17.25;;;;;;;23.52;71.56;100500.38;5065977;28;20051;-69
2022/08/17 11:32:54;;;;;;;18.67;14.90;;;;;;;23.92;70.55;100499.81;5050151;28;20592;-69
2022/08/17 11:35:23;;;;;;;20.95;14.35;;;;;;;24.15;69.52;100500.94;5066147;28;20424;-70
2022/08/17 11:38:03;;;;;;;19.63;15.40;;;;;;;24.03;70.00;100497.75;5067971;28;20052;-69
2022/08/17 11:40:45;;;;;;;19.52;14.35;;;;;;;24.21;68.81;100506.94;5061492;28;20052;-70
2022/08/17 11:43:20;;;;;;;21.13;14.68;;;;;;;24.26;68.78;100504.50;5061878;28;20056;-70
2022/08/17 11:45:54;;;;;;;25.75;14.50;;;;;;;24.62;67.60;100505.03;5061660;28;20527;-70
2022/08/17 11:51:57;;;;;;;22.40;13.73;;;;;;;24.66;68.63;100491.75;5048784;28;20057;-70
2022/08/17 11:54:35;;;;;;;27.52;14.77;;;;;;;24.92;66.59;100493.16;5046515;28;20500;-69
2022/08/17 11:57:24;;;;;;;22.15;14.38;;;;;;;24.88;65.77;100492.41;5047463;28;20480;-70
2022/08/17 11:59:54;;;;;;;30.83;14.35;;;;;;;24.75;65.84;100497.75;5047826;28;20049;-69
2022/08/17 12:02:29;;;;;;;29.50;14.63;;;;;;;24.57;66.16;100496.22;5050162;28;20393;-70
2022/08/17 12:05:01;;;;;;;28.08;16.13;;;;;;;24.41;66.59;100502.38;5054306;28;20056;-70
2022/08/17 12:07:31;;;;;;;23.00;15.90;;;;;;;24.16;67.38;100508.19;5053587;28;20053;-69
2022/08/17 12:09:59;;;;;;;19.25;14.43;;;;;;;24.31;66.85;100506.88;5053972;28;20060;-70
2022/08/17 12:12:31;;;;;;;27.08;16.08;;;;;;;24.49;66.35;100507.56;5053039;28;20045;-70
2022/08/17 12:15:00;;;;;;;21.08;15.50;;;;;;;24.62;66.72;100510.69;5051085;28;20049;-68
2022/08/17 12:17:37;;;;;;;16.33;12.38;;;;;;;24.81;65.99;100507.34;5056882;28;20060;-70
2022/08/17 12:20:41;;;;;;;18.60;13.93;;;;;;;25.17;64.85;100507.84;5062741;28;20568;-69